createdAt,value
2023-03-18T00:00:56.791Z,68.4
2023-03-18T00:02:00.450Z,68.5
2023-03-18T00:03:03.907Z,68.7
2023-03-18T00:04:07.715Z,68.4
2023-03-18T00:05:11.356Z,68.5
2023-03-18T00:06:14.574Z,68.2
2023-03-18T00:07:18.128Z,68.4
2023-03-18T00:08:21.527Z,68.6
2023-03-18T00:09:25.368Z,68.5
2023-03-18T00:10:28.266Z,68.2
2023-03-18T00:11:31.271Z,68.2
2023-03-18T00:12:34.143Z,68.3
2023-03-18T00:13:37.308Z,68.4
2023-03-18T00:14:40.335Z,68.8
2023-03-18T00:15:43.625Z,68.6
2023-03-18T00:16:46.890Z,68.3
2023-03-18T00:17:50.338Z,68.5
2023-03-18T00:18:53.706Z,68.7
2023-03-18T00:19:57.112Z,68.6
2023-03-18T00:20:59.627Z,68.7
2023-03-18T00:22:03.048Z,69.2
2023-03-18T00:23:06.509Z,68.9
2023-03-18T00:24:10.172Z,68
2023-03-18T00:25:14.030Z,67.9
2023-03-18T00:26:17.016Z,67.5
2023-03-18T00:27:20.105Z,67.8
2023-03-18T00:28:23.174Z,68.2
2023-03-18T00:29:26.275Z,68.3
2023-03-18T00:30:29.298Z,68.1
2023-03-18T00:31:33.835Z,68.1
2023-03-18T00:32:37.117Z,67.7
2023-03-18T00:33:40.772Z,67.5
2023-03-18T00:34:43.507Z,67.8
2023-03-18T00:35:46.810Z,68
2023-03-18T00:36:49.429Z,67.6
2023-03-18T00:37:52.515Z,67.9
2023-03-18T00:38:55.221Z,67.3
2023-03-18T00:39:58.776Z,67.2
2023-03-18T00:41:02.400Z,67.2
2023-03-18T00:42:05.586Z,67.7
2023-03-18T00:43:08.828Z,68
2023-03-18T00:44:12.119Z,68.5
2023-03-18T00:45:15.551Z,68.4
2023-03-18T00:46:19.693Z,67.6
2023-03-18T00:47:23.217Z,67
2023-03-18T00:48:27.022Z,65.8
2023-03-18T00:49:29.470Z,66
2023-03-18T00:50:33.563Z,66.4
2023-03-18T00:51:37.271Z,66.5
2023-03-18T00:52:40.151Z,66.1
2023-03-18T00:53:43.788Z,66.5
2023-03-18T00:54:47.062Z,66.1
2023-03-18T00:55:50.990Z,66.2
2023-03-18T00:56:54.777Z,66.6
2023-03-18T00:57:57.887Z,66.3
2023-03-18T00:59:01.277Z,66.3
2023-03-18T01:00:04.424Z,66.6
2023-03-18T01:01:07.793Z,66.7
2023-03-18T01:02:10.910Z,66.4
2023-03-18T01:03:14.267Z,66.5
2023-03-18T01:04:17.914Z,66.5
2023-03-18T01:05:21.351Z,66.5
2023-03-18T01:06:24.754Z,66.1
2023-03-18T01:07:27.205Z,66.1
2023-03-18T01:08:30.632Z,65.8
2023-03-18T01:09:32.824Z,65.8
2023-03-18T01:10:35.985Z,65.3
2023-03-18T01:11:39.379Z,65
2023-03-18T01:12:42.931Z,64.7
2023-03-18T01:13:46.027Z,64.4
2023-03-18T01:14:48.765Z,64.6
2023-03-18T01:15:51.570Z,64.7
2023-03-18T01:16:55.195Z,64.4
2023-03-18T01:17:57.763Z,64.3
2023-03-18T01:19:00.607Z,64.2
2023-03-18T01:20:03.759Z,64.3
2023-03-18T01:21:07.260Z,64.6
2023-03-18T01:22:09.965Z,64.2
2023-03-18T01:23:13.158Z,64.3
2023-03-18T01:24:16.247Z,63.8
2023-03-18T01:25:19.992Z,63.9
2023-03-18T01:26:23.464Z,64
2023-03-18T01:27:26.835Z,63.8
2023-03-18T01:28:31.050Z,64
2023-03-18T01:29:34.405Z,63.7
2023-03-18T01:30:38.193Z,63.3
2023-03-18T01:31:41.679Z,63.4
2023-03-18T01:32:44.825Z,63.3
2023-03-18T01:33:48.316Z,63.4
2023-03-18T01:34:51.752Z,63.4
2023-03-18T01:35:55.237Z,63.5
2023-03-18T01:36:58.542Z,63.1
2023-03-18T01:38:01.255Z,63.2
2023-03-18T01:39:04.825Z,63.4
2023-03-18T01:40:07.332Z,63.5
2023-03-18T01:41:09.917Z,63.2
2023-03-18T01:42:13.472Z,62.8
2023-03-18T01:43:17.254Z,63
2023-03-18T01:44:21.396Z,62.8
2023-03-18T01:45:24.847Z,62.8
2023-03-18T01:46:28.324Z,62.9
2023-03-18T01:47:30.765Z,63
2023-03-18T01:48:33.189Z,63
2023-03-18T01:49:36.852Z,63.1
2023-03-18T01:50:40.067Z,63.1
2023-03-18T01:51:43.478Z,63.1
2023-03-18T01:52:46.218Z,62.8
2023-03-18T01:53:48.811Z,62.9
2023-03-18T01:54:51.351Z,62.8
2023-03-18T01:55:54.208Z,62.8
2023-03-18T01:56:57.003Z,62.8
2023-03-18T01:58:00.444Z,62.6
2023-03-18T01:59:04.460Z,62.7
2023-03-18T02:00:08.381Z,62.6
2023-03-18T02:01:11.459Z,62.8
2023-03-18T02:02:14.645Z,62.6
2023-03-18T02:03:17.187Z,62.5
2023-03-18T02:04:20.557Z,62.6
2023-03-18T02:06:27.492Z,62.4
2023-03-18T02:07:30.198Z,62.4
2023-03-18T02:08:32.923Z,62.5
2023-03-18T02:09:36.433Z,62.7
2023-03-18T02:10:40.172Z,62.2
2023-03-18T02:11:43.434Z,62.2
2023-03-18T02:12:46.189Z,62.4
2023-03-18T02:13:49.188Z,62.6
2023-03-18T02:14:52.594Z,62.9
2023-03-18T02:15:56.070Z,63.1
2023-03-18T02:16:58.703Z,63.5
2023-03-18T02:18:02.620Z,63.5
2023-03-18T02:19:05.399Z,64.1
2023-03-18T02:20:08.461Z,64.1
2023-03-18T02:21:11.397Z,64.5
2023-03-18T02:22:15.536Z,64.9
2023-03-18T02:23:18.948Z,65.5
2023-03-18T02:24:21.678Z,66.3
2023-03-18T02:25:24.401Z,66.8
2023-03-18T02:26:27.492Z,67.6
2023-03-18T02:27:30.892Z,68.4
2023-03-18T02:28:34.298Z,69.1
2023-03-18T02:29:37.743Z,69.7
2023-03-18T02:30:41.064Z,70.5
2023-03-18T02:31:45.141Z,70.6
2023-03-18T02:32:49.026Z,70.9
2023-03-18T02:33:52.455Z,72.3
2023-03-18T02:34:55.442Z,72.6
2023-03-18T02:35:58.634Z,73.2
2023-03-18T02:37:01.780Z,73.5
2023-03-18T02:38:05.798Z,73.8
2023-03-18T02:39:09.228Z,73.9
2023-03-18T02:40:12.419Z,74.5
2023-03-18T02:41:16.196Z,74.6
2023-03-18T02:42:18.626Z,75.9
2023-03-18T02:43:21.785Z,75.7
2023-03-18T02:44:24.266Z,75.4
2023-03-18T02:45:27.628Z,76.2
2023-03-18T02:46:31.994Z,76.6
2023-03-18T02:47:35.824Z,76.6
2023-03-18T02:48:39.470Z,77.1
2023-03-18T02:49:42.530Z,77.7
2023-03-18T02:50:45.307Z,77.8
2023-03-18T02:51:48.763Z,78.3
2023-03-18T02:52:51.855Z,77.6
2023-03-18T02:53:54.594Z,77.4
2023-03-18T02:54:56.749Z,77.8
2023-03-18T02:56:00.117Z,78.2
2023-03-18T02:57:03.115Z,78.4
2023-03-18T02:58:06.507Z,78.8
2023-03-18T02:59:09.630Z,79.1
2023-03-18T03:00:12.641Z,79
2023-03-18T03:01:15.066Z,79.3
2023-03-18T03:02:17.961Z,79.3
2023-03-18T03:03:22.733Z,79.8
2023-03-18T03:04:26.384Z,80.1
2023-03-18T03:05:29.184Z,80
2023-03-18T03:06:32.023Z,80.5
2023-03-18T03:07:35.222Z,80
2023-03-18T03:08:38.215Z,79.5
2023-03-18T03:09:41.394Z,79.9
2023-03-18T03:10:44.815Z,79.9
2023-03-18T03:11:47.965Z,79.2
2023-03-18T03:12:51.052Z,78.9
2023-03-18T03:13:54.094Z,78.9
2023-03-18T03:14:57.223Z,78.9
2023-03-18T03:16:00.899Z,78.8
2023-03-18T03:17:03.639Z,78.7
2023-03-18T03:18:07.395Z,78.5
2023-03-18T03:19:11.291Z,78.1
2023-03-18T03:20:14.087Z,78.4
2023-03-18T03:21:17.389Z,78.6
2023-03-18T03:22:20.559Z,78
2023-03-18T03:23:23.011Z,77.8
2023-03-18T03:24:26.790Z,77.9
2023-03-18T03:25:30.220Z,78
2023-03-18T03:26:33.940Z,78.1
2023-03-18T03:27:37.209Z,78.3
2023-03-18T03:28:39.999Z,78.8
2023-03-18T03:29:42.993Z,78.8
2023-03-18T03:30:45.767Z,79.4
2023-03-18T03:31:48.948Z,79.3
2023-03-18T03:32:52.381Z,79.1
2023-03-18T03:33:55.992Z,79.8
2023-03-18T03:35:00.198Z,80
2023-03-18T03:36:04.258Z,80.8
2023-03-18T03:37:06.963Z,80.9
2023-03-18T03:38:09.560Z,80.9
2023-03-18T03:39:12.365Z,81.2
2023-03-18T03:40:15.210Z,81.8
2023-03-18T03:41:18.307Z,82.2
2023-03-18T03:42:21.022Z,81.9
2023-03-18T03:43:24.012Z,81.9
2023-03-18T03:44:27.208Z,82.3
2023-03-18T03:45:30.192Z,82.9
2023-03-18T03:46:33.195Z,82.7
2023-03-18T03:47:35.733Z,82.5
2023-03-18T03:48:38.460Z,82.7
2023-03-18T03:49:42.034Z,82.5
2023-03-18T03:50:46.040Z,82.5
2023-03-18T03:51:49.501Z,83.1
2023-03-18T03:52:52.682Z,83.3
2023-03-18T03:53:55.670Z,83.4
2023-03-18T03:54:58.729Z,83.7
2023-03-18T03:56:01.614Z,83.8
2023-03-18T03:57:05.347Z,83.9
2023-03-18T03:58:08.839Z,84.2
2023-03-18T03:59:11.641Z,83.8
2023-03-18T04:00:14.435Z,83.9
2023-03-18T04:01:17.875Z,84.4
2023-03-18T04:02:20.811Z,84.4
2023-03-18T04:03:24.294Z,84.6
2023-03-18T04:04:26.858Z,84.9
2023-03-18T04:05:31.122Z,85.5
2023-03-18T04:06:34.928Z,85.4
2023-03-18T04:07:36.804Z,85.1
2023-03-18T04:08:39.593Z,83.5
2023-03-18T04:09:42.332Z,82.9
2023-03-18T04:10:45.718Z,82.8
2023-03-18T04:11:48.795Z,82.5
2023-03-18T04:12:51.885Z,82.4
2023-03-18T04:13:54.881Z,82.3
2023-03-18T04:14:57.616Z,82.6
2023-03-18T04:16:00.989Z,82.4
2023-03-18T04:17:03.702Z,83.3
2023-03-18T04:18:07.755Z,83.2
2023-03-18T04:19:10.828Z,83.4
2023-03-18T04:20:14.080Z,83.2
2023-03-18T04:21:18.262Z,83.3
2023-03-18T04:22:21.637Z,83.7
2023-03-18T04:23:24.637Z,83.3
2023-03-18T04:24:27.549Z,83.4
2023-03-18T04:25:31.175Z,83.3
2023-03-18T04:26:34.697Z,82.8
2023-03-18T04:27:37.802Z,82.2
2023-03-18T04:28:40.392Z,82.1
2023-03-18T04:29:43.258Z,82.2
2023-03-18T04:30:46.327Z,82.2
2023-03-18T04:31:49.748Z,81.7
2023-03-18T04:32:53.919Z,81.6
2023-03-18T04:33:56.991Z,81.6
2023-03-18T04:35:00.335Z,81.6
2023-03-18T04:36:03.337Z,81.3
2023-03-18T04:37:06.913Z,81.1
2023-03-18T04:38:10.407Z,80.9
2023-03-18T04:39:13.449Z,81.4
2023-03-18T04:40:16.723Z,81.8
2023-03-18T04:41:19.563Z,81.5
2023-03-18T04:42:22.352Z,81.3
2023-03-18T04:43:25.357Z,80.6
2023-03-18T04:44:28.471Z,80.7
2023-03-18T04:45:31.845Z,80.9
2023-03-18T04:46:35.569Z,81.1
2023-03-18T04:47:38.230Z,80.8
2023-03-18T04:48:40.716Z,80.9
2023-03-18T04:49:43.465Z,80.8
2023-03-18T04:50:46.302Z,80.6
2023-03-18T04:51:50.050Z,80.2
2023-03-18T04:52:54.090Z,80.2
2023-03-18T04:53:58.324Z,79.8
2023-03-18T04:55:02.643Z,79.8
2023-03-18T04:56:05.648Z,79.9
2023-03-18T04:57:08.549Z,79.8
2023-03-18T04:58:11.356Z,79.9
2023-03-18T04:59:14.186Z,80.1
2023-03-18T05:00:17.010Z,80.1
2023-03-18T05:01:20.463Z,80.2
2023-03-18T05:02:24.654Z,80
2023-03-18T05:03:28.452Z,80.1
2023-03-18T05:04:31.437Z,80.4
2023-03-18T05:05:39.363Z,80.1
2023-03-18T05:06:42.416Z,80
2023-03-18T05:07:45.494Z,80
2023-03-18T05:08:48.963Z,80.2
2023-03-18T05:09:52.832Z,80.3
2023-03-18T05:10:56.350Z,80.4
2023-03-18T05:11:59.701Z,80.4
2023-03-18T05:13:03.035Z,80.2
2023-03-18T05:14:06.102Z,80.2
2023-03-18T05:15:12.087Z,80.4
2023-03-18T05:16:15.858Z,80.1
2023-03-18T05:17:19.370Z,80.1
2023-03-18T05:18:22.666Z,80.2
2023-03-18T05:19:25.846Z,80.1
2023-03-18T05:20:28.916Z,80
2023-03-18T05:21:32.795Z,79.9
2023-03-18T05:22:36.290Z,79.9
2023-03-18T05:23:39.207Z,79.7
2023-03-18T05:24:42.983Z,79.4
2023-03-18T05:25:46.894Z,79.5
2023-03-18T05:26:49.985Z,79.2
2023-03-18T05:27:53.098Z,79.5
2023-03-18T05:28:55.545Z,79.6
2023-03-18T05:29:58.471Z,79.7
2023-03-18T05:31:01.208Z,79.8
2023-03-18T05:32:04.382Z,79.7
2023-03-18T05:33:08.856Z,79.6
2023-03-18T05:34:12.111Z,79.7
2023-03-18T05:35:15.406Z,79.8
2023-03-18T05:36:18.494Z,79.6
2023-03-18T05:37:22.503Z,79.6
2023-03-18T05:38:25.503Z,79.5
2023-03-18T05:39:28.544Z,79.6
2023-03-18T05:40:31.641Z,79.5
2023-03-18T05:41:35.829Z,79.6
2023-03-18T05:42:57.224Z,79.5
2023-03-18T05:44:00.327Z,79.4
2023-03-18T05:45:03.124Z,79.3
2023-03-18T05:46:06.105Z,79.5
2023-03-18T05:47:09.785Z,79.8
2023-03-18T05:48:13.149Z,79.8
2023-03-18T05:49:15.314Z,79.9
2023-03-18T05:50:18.299Z,79.7
2023-03-18T05:51:20.823Z,79.5
2023-03-18T05:52:23.614Z,79.7
2023-03-18T05:53:26.624Z,79.6
2023-03-18T05:54:29.347Z,80.1
2023-03-18T05:55:33.063Z,79.7
2023-03-18T05:56:36.884Z,79.7
2023-03-18T05:57:40.687Z,79.7
2023-03-18T05:58:44.335Z,79.8
2023-03-18T05:59:48.046Z,79.8
2023-03-18T06:00:51.174Z,79.9
2023-03-18T06:01:55.013Z,80
2023-03-18T06:02:58.639Z,79.9
2023-03-18T06:04:01.666Z,80.2
2023-03-18T06:05:05.149Z,80
2023-03-18T06:06:07.981Z,80.2
2023-03-18T06:07:11.768Z,80.2
2023-03-18T06:08:15.045Z,80.1
2023-03-18T06:09:18.112Z,80.1
2023-03-18T06:10:20.859Z,80.1
2023-03-18T06:11:24.620Z,80.1
2023-03-18T06:12:28.867Z,80.2
2023-03-18T06:13:33.617Z,80.1
2023-03-18T06:14:37.427Z,80.2
2023-03-18T06:15:40.507Z,80
2023-03-18T06:16:44.724Z,80.1
2023-03-18T06:17:47.999Z,80.3
2023-03-18T06:18:51.656Z,81.1
2023-03-18T06:19:54.871Z,80.8
2023-03-18T06:20:57.892Z,80.9
2023-03-18T06:22:00.869Z,81.1
2023-03-18T06:23:03.580Z,81.3
2023-03-18T06:24:07.084Z,81.3
2023-03-18T06:25:10.906Z,81.6
2023-03-18T06:26:13.484Z,81.7
2023-03-18T06:27:16.659Z,82
2023-03-18T06:28:20.116Z,81.9
2023-03-18T06:29:23.971Z,82.2
2023-03-18T06:30:27.421Z,82.2
2023-03-18T06:31:30.651Z,82.3
2023-03-18T06:32:34.177Z,82.3
2023-03-18T06:33:37.361Z,82.2
2023-03-18T06:34:40.777Z,82.2
2023-03-18T06:35:43.665Z,82.7
2023-03-18T06:36:46.862Z,82.2
2023-03-18T06:37:49.926Z,82.7
2023-03-18T06:38:53.637Z,83
2023-03-18T06:39:56.484Z,82.7
2023-03-18T06:41:00.495Z,82.9
2023-03-18T06:42:03.182Z,83.3
2023-03-18T06:43:06.225Z,83.6
2023-03-18T06:44:09.675Z,83.5
2023-03-18T06:45:13.369Z,83.5
2023-03-18T06:46:16.281Z,83.9
2023-03-18T06:47:19.216Z,83.8
2023-03-18T06:48:21.928Z,83.7
2023-03-18T06:49:24.948Z,83.6
2023-03-18T06:50:28.102Z,83.7
2023-03-18T06:51:30.978Z,83.6
2023-03-18T06:52:34.363Z,83.8
2023-03-18T06:53:38.094Z,84.2
2023-03-18T06:54:41.875Z,84
2023-03-18T06:55:44.951Z,84.3
2023-03-18T06:56:48.016Z,84.2
2023-03-18T06:57:51.741Z,84.2
2023-03-18T06:58:54.606Z,83.9
2023-03-18T06:59:58.265Z,83.8
2023-03-18T07:01:01.965Z,84.4
2023-03-18T07:02:04.299Z,84.5
2023-03-18T07:03:06.476Z,84.2
2023-03-18T07:04:09.802Z,84.5
2023-03-18T07:05:12.349Z,84.8
2023-03-18T07:06:14.804Z,84.9
2023-03-18T07:07:17.941Z,85.1
2023-03-18T07:08:21.402Z,85
2023-03-18T07:09:25.143Z,85.3
2023-03-18T07:10:28.192Z,85.3
2023-03-18T07:11:31.267Z,85.5
2023-03-18T07:12:34.146Z,85.3
2023-03-18T07:13:37.257Z,85.4
2023-03-18T07:14:39.784Z,85.4
2023-03-18T07:15:43.645Z,85.4
2023-03-18T07:16:48.067Z,85.5
2023-03-18T07:17:51.477Z,85.8
2023-03-18T07:18:54.257Z,85.8
2023-03-18T07:19:57.549Z,85.9
2023-03-18T07:21:00.550Z,85.9
2023-03-18T07:22:03.698Z,86.2
2023-03-18T07:23:06.882Z,86.4
2023-03-18T07:24:09.408Z,86.4
2023-03-18T07:25:13.166Z,86.5
2023-03-18T07:26:16.550Z,86.7
2023-03-18T07:27:18.755Z,86.6
2023-03-18T07:28:21.786Z,86.5
2023-03-18T07:29:24.953Z,86.6
2023-03-18T07:30:27.948Z,86.2
2023-03-18T07:31:32.100Z,86
2023-03-18T07:32:35.660Z,85.9
2023-03-18T07:33:38.849Z,85.8
2023-03-18T07:34:42.222Z,85.7
2023-03-18T07:35:45.961Z,85.6
2023-03-18T07:36:48.714Z,85.5
2023-03-18T07:37:51.804Z,85.6
2023-03-18T07:38:54.349Z,85.6
2023-03-18T07:39:58.351Z,85.4
2023-03-18T07:41:01.109Z,85.4
2023-03-18T07:42:04.389Z,85.2
2023-03-18T07:43:07.589Z,85.2
2023-03-18T07:44:10.658Z,85.2
2023-03-18T07:45:13.798Z,85.5
2023-03-18T07:46:16.832Z,85
2023-03-18T07:47:20.389Z,84.8
2023-03-18T07:48:23.935Z,84.8
2023-03-18T07:49:27.338Z,84.7
2023-03-18T07:50:30.826Z,85.4
2023-03-18T07:51:33.688Z,84.9
2023-03-18T07:52:36.499Z,84.7
2023-03-18T07:53:39.864Z,84.7
2023-03-18T07:54:43.006Z,85.3
2023-03-18T07:55:46.192Z,85.3
2023-03-18T07:56:49.576Z,85.5
2023-03-18T07:57:52.420Z,85.7
2023-03-18T07:58:55.938Z,85.5
2023-03-18T07:59:59.275Z,85.1
2023-03-18T08:01:01.754Z,84.9
2023-03-18T08:02:05.046Z,84.8
2023-03-18T08:03:08.873Z,85.2
2023-03-18T08:04:13.300Z,85.3
2023-03-18T08:05:17.298Z,85.6
2023-03-18T08:06:22.269Z,85.5
2023-03-18T08:07:25.758Z,84.9
2023-03-18T08:08:28.457Z,84.5
2023-03-18T08:09:31.535Z,84.8
2023-03-18T08:10:34.586Z,84.8
2023-03-18T08:11:38.004Z,85.3
2023-03-18T08:12:55.026Z,85
2023-03-18T08:13:58.970Z,84.1
2023-03-18T08:15:03.080Z,84.2
2023-03-18T08:16:06.526Z,84
2023-03-18T08:17:10.036Z,84.1
2023-03-18T08:18:13.804Z,84
2023-03-18T08:19:17.382Z,83.8
2023-03-18T08:20:21.030Z,83.7
2023-03-18T08:21:23.785Z,83.8
2023-03-18T08:22:27.140Z,83.8
2023-03-18T08:23:30.308Z,83.6
2023-03-18T08:24:33.497Z,83.3
2023-03-18T08:25:36.684Z,83
2023-03-18T08:26:39.842Z,83.2
2023-03-18T08:27:43.150Z,83.7
2023-03-18T08:28:46.119Z,83.9
2023-03-18T08:29:49.772Z,83.7
2023-03-18T08:30:52.842Z,83.8
2023-03-18T08:31:56.184Z,83.4
2023-03-18T08:32:59.254Z,83.3
2023-03-18T08:34:03.123Z,82.6
2023-03-18T08:35:06.924Z,82.8
2023-03-18T08:36:10.115Z,82.9
2023-03-18T08:37:13.096Z,83.3
2023-03-18T08:38:16.482Z,83.3
2023-03-18T08:39:18.642Z,83.7
2023-03-18T08:40:21.799Z,83.5
2023-03-18T08:41:25.168Z,83.4
2023-03-18T08:42:27.906Z,83.4
2023-03-18T08:43:30.691Z,83.5
2023-03-18T08:44:34.111Z,83.4
2023-03-18T08:45:37.549Z,83.3
2023-03-18T08:46:40.867Z,83.1
2023-03-18T08:47:43.949Z,83.3
2023-03-18T08:48:47.417Z,83.5
2023-03-18T08:49:52.750Z,83.3
2023-03-18T08:50:56.612Z,82.7
2023-03-18T08:52:00.379Z,82.3
2023-03-18T08:53:03.477Z,81.9
2023-03-18T08:54:06.260Z,81.8
2023-03-18T08:55:10.474Z,82.3
2023-03-18T08:56:13.458Z,82
2023-03-18T08:57:17.160Z,82
2023-03-18T08:58:20.912Z,82
2023-03-18T08:59:24.185Z,81.7
2023-03-18T09:00:27.521Z,81
2023-03-18T09:01:30.938Z,80.7
2023-03-18T09:02:33.499Z,80.4
2023-03-18T09:03:37.149Z,80.2
2023-03-18T09:04:41.150Z,79.7
2023-03-18T09:05:44.274Z,80.2
2023-03-18T09:06:48.251Z,80
2023-03-18T09:07:51.896Z,80.1
2023-03-18T09:08:55.688Z,79.9
2023-03-18T09:09:58.415Z,80
2023-03-18T09:11:01.618Z,79.9
2023-03-18T09:12:05.302Z,79.5
2023-03-18T09:13:08.414Z,79.7
2023-03-18T09:14:11.231Z,80
2023-03-18T09:15:14.584Z,78.9
2023-03-18T09:16:18.524Z,78.1
2023-03-18T09:18:11.308Z,77.1
2023-03-18T09:19:16.009Z,76.9
2023-03-18T09:20:18.924Z,77
2023-03-18T09:21:22.040Z,75.8
2023-03-18T09:22:25.851Z,76.1
2023-03-18T09:23:28.926Z,76.3
2023-03-18T09:24:32.042Z,75.2
2023-03-18T09:25:36.120Z,75.8
2023-03-18T09:26:38.580Z,76
2023-03-18T09:27:41.671Z,75.9
2023-03-18T09:28:44.178Z,75.2
2023-03-18T09:29:47.471Z,75.5
2023-03-18T09:30:50.337Z,75.4
2023-03-18T09:31:52.984Z,75.5
2023-03-18T09:32:56.748Z,75.2
2023-03-18T09:34:00.072Z,75.5
2023-03-18T09:35:03.762Z,74.7
2023-03-18T09:36:07.249Z,74.2
2023-03-18T09:37:10.792Z,73.8
2023-03-18T09:38:14.627Z,73.9
2023-03-18T09:39:17.904Z,74.2
2023-03-18T09:40:20.973Z,75.3
2023-03-18T09:41:25.052Z,75.2
2023-03-18T09:42:27.777Z,75.6
2023-03-18T09:43:31.124Z,75.8
2023-03-18T09:44:34.578Z,75.9
2023-03-18T09:45:37.415Z,76.8
2023-03-18T09:46:40.261Z,77.1
2023-03-18T09:47:44.637Z,77.4
2023-03-18T09:48:47.992Z,77.7
2023-03-18T09:49:50.512Z,77.5
2023-03-18T09:50:53.891Z,78.2
2023-03-18T09:51:57.164Z,78.4
2023-03-18T09:53:00.380Z,78.4
2023-03-18T09:54:04.289Z,78.5
2023-03-18T09:55:07.393Z,78.1
2023-03-18T09:56:10.442Z,78.1
2023-03-18T09:57:13.442Z,78.1
2023-03-18T09:58:16.334Z,78.7
2023-03-18T09:59:19.536Z,78.3
2023-03-18T10:00:22.114Z,78
2023-03-18T10:01:25.744Z,78.2
2023-03-18T10:02:29.670Z,78
2023-03-18T10:03:32.561Z,77.9
2023-03-18T10:04:35.896Z,78.1
2023-03-18T10:05:38.908Z,78
2023-03-18T10:06:41.711Z,78.1
2023-03-18T10:07:44.747Z,78.3
2023-03-18T10:08:47.642Z,78.2
2023-03-18T10:09:51.470Z,78.1
2023-03-18T10:10:54.815Z,78.2
2023-03-18T10:11:57.832Z,78.1
2023-03-18T10:13:00.910Z,78.2
2023-03-18T10:14:04.356Z,78.3
2023-03-18T10:15:07.370Z,78.6
2023-03-18T10:16:11.260Z,78.3
2023-03-18T10:17:14.487Z,78.3
2023-03-18T10:18:17.575Z,78.2
2023-03-18T10:19:21.056Z,77.5
2023-03-18T10:20:23.895Z,77.3
2023-03-18T10:21:27.408Z,77.2
2023-03-18T10:22:30.584Z,77
2023-03-18T10:23:34.242Z,76.9
2023-03-18T10:24:37.902Z,76.5
2023-03-18T10:25:41.765Z,76.2
2023-03-18T10:26:44.737Z,75.8
2023-03-18T10:27:48.285Z,75.6
2023-03-18T10:28:51.384Z,75.9
2023-03-18T10:29:54.573Z,74.3
2023-03-18T10:30:57.794Z,74
2023-03-18T10:32:00.439Z,73.5
2023-03-18T10:33:03.750Z,73.1
2023-03-18T10:34:07.119Z,72.6
2023-03-18T10:35:10.186Z,70.7
2023-03-18T10:36:13.550Z,70.1
2023-03-18T10:37:17.163Z,70.9
2023-03-18T10:38:20.451Z,69.3
2023-03-18T10:39:23.691Z,69
2023-03-18T10:40:27.170Z,67
2023-03-18T10:41:31.114Z,66.2
2023-03-18T10:42:34.502Z,66.6
2023-03-18T10:43:37.221Z,67.4
2023-03-18T10:44:40.864Z,68.1
2023-03-18T10:45:44.365Z,68.1
2023-03-18T10:46:47.412Z,68.5
2023-03-18T10:47:51.205Z,67.7
2023-03-18T10:48:54.284Z,68.5
2023-03-18T10:49:57.402Z,68.9
2023-03-18T10:51:00.751Z,69.4
2023-03-18T10:52:03.919Z,70.1
2023-03-18T10:53:07.196Z,70.6
2023-03-18T10:54:10.004Z,70.3
2023-03-18T10:55:13.178Z,70.1
2023-03-18T10:56:16.095Z,70.5
2023-03-18T10:57:19.785Z,70.5
2023-03-18T10:58:23.232Z,71.2
2023-03-18T10:59:26.248Z,71.2
2023-03-18T11:00:29.354Z,71.7
2023-03-18T11:01:33.986Z,72
2023-03-18T11:02:37.391Z,71.8
2023-03-18T11:03:40.612Z,72.3
2023-03-18T11:04:44.042Z,72.3
2023-03-18T11:05:47.054Z,72.4
2023-03-18T11:06:50.394Z,72.9
2023-03-18T11:07:53.381Z,72.7
2023-03-18T11:08:56.650Z,73.3
2023-03-18T11:10:00.099Z,73.5
2023-03-18T11:11:04.184Z,73.4
2023-03-18T11:12:07.843Z,73.8
2023-03-18T11:13:11.781Z,74
2023-03-18T11:14:15.147Z,73.4
2023-03-18T11:15:18.250Z,73.8
2023-03-18T11:16:21.218Z,74.3
2023-03-18T11:17:24.174Z,73.7
2023-03-18T11:18:27.626Z,73.5
2023-03-18T11:19:31.042Z,73.5
2023-03-18T11:20:36.205Z,73.5
2023-03-18T11:21:39.568Z,73.4
2023-03-18T11:22:43.033Z,73.7
2023-03-18T11:23:46.622Z,74.2
2023-03-18T11:24:49.435Z,72.9
2023-03-18T11:25:53.218Z,73.1
2023-03-18T11:26:56.422Z,72.5
2023-03-18T11:28:00.114Z,72.4
2023-03-18T11:29:03.787Z,72.7
2023-03-18T11:30:06.621Z,72.7
2023-03-18T11:31:09.652Z,72.5
2023-03-18T11:32:12.751Z,72.4
2023-03-18T11:33:16.376Z,72.7
2023-03-18T11:34:19.155Z,72.8
2023-03-18T11:35:22.200Z,73.4
2023-03-18T11:36:25.340Z,73.5
2023-03-18T11:37:28.696Z,73.6
2023-03-18T11:38:32.107Z,73.7
2023-03-18T11:39:35.918Z,73.6
2023-03-18T11:40:39.547Z,73.6
2023-03-18T11:41:42.644Z,73.4
2023-03-18T11:42:45.332Z,74.2
2023-03-18T11:43:48.692Z,73.8
2023-03-18T11:44:51.956Z,73.7
2023-03-18T11:45:55.246Z,73.8
2023-03-18T11:46:58.926Z,73.9
2023-03-18T11:48:02.216Z,74
2023-03-18T11:49:05.609Z,74.1
2023-03-18T11:50:08.114Z,74.2
2023-03-18T11:51:11.758Z,74.2
2023-03-18T11:52:14.601Z,74.1
2023-03-18T11:53:18.044Z,74.2
2023-03-18T11:54:21.523Z,74.4
2023-03-18T11:55:25.231Z,74.3
2023-03-18T11:56:28.592Z,74
2023-03-18T11:57:32.044Z,74
2023-03-18T11:58:34.601Z,74.2
2023-03-18T11:59:37.693Z,73.8
2023-03-18T12:00:41.216Z,73.3
2023-03-18T12:01:44.301Z,73.1
2023-03-18T12:02:47.263Z,72.4
2023-03-18T12:03:50.162Z,72.3
2023-03-18T12:04:54.252Z,72.3
2023-03-18T12:05:57.757Z,72.5
2023-03-18T12:07:01.475Z,72.5
2023-03-18T12:08:04.769Z,71.9
2023-03-18T12:09:08.112Z,71.6
2023-03-18T12:10:11.510Z,71
2023-03-18T12:11:14.604Z,70.6
2023-03-18T12:12:17.318Z,69.2
2023-03-18T12:13:20.067Z,68.2
2023-03-18T12:14:23.886Z,67.1
2023-03-18T12:15:27.651Z,66.8
2023-03-18T12:16:31.686Z,65.6
2023-03-18T12:17:35.008Z,66.2
2023-03-18T12:18:38.059Z,63.7
2023-03-18T12:19:40.931Z,63.7
2023-03-18T12:20:44.370Z,63.3
2023-03-18T12:21:46.894Z,63.4
2023-03-18T12:22:49.677Z,63.3
2023-03-18T12:23:52.377Z,61.4
2023-03-18T12:24:55.478Z,61.7
2023-03-18T12:25:58.890Z,62.1
2023-03-18T12:27:01.613Z,62.2
2023-03-18T12:28:04.327Z,63.1
2023-03-18T12:29:07.738Z,63
2023-03-18T12:30:10.177Z,63.5
2023-03-18T12:31:13.547Z,63.4
2023-03-18T12:32:17.327Z,63.7
2023-03-18T12:33:20.389Z,64
2023-03-18T12:34:23.393Z,64.2
2023-03-18T12:35:27.261Z,63.9
2023-03-18T12:36:29.847Z,64.1
2023-03-18T12:37:32.973Z,64.4
2023-03-18T12:38:36.700Z,64.1
2023-03-18T12:39:39.764Z,64.9
2023-03-18T12:40:42.278Z,65
2023-03-18T12:41:45.663Z,65.3
2023-03-18T12:42:48.116Z,65.9
2023-03-18T12:43:51.750Z,66
2023-03-18T12:44:55.168Z,65.9
2023-03-18T12:45:58.273Z,65.9
2023-03-18T12:47:01.676Z,66.1
2023-03-18T12:48:05.882Z,66
2023-03-18T12:49:08.030Z,65.7
2023-03-18T12:50:11.406Z,66
2023-03-18T12:51:14.405Z,66
2023-03-18T12:52:17.786Z,66.7
2023-03-18T12:53:21.205Z,66.7
2023-03-18T12:54:24.390Z,66.3
2023-03-18T12:55:27.728Z,66
2023-03-18T12:56:31.184Z,66.2
2023-03-18T12:57:34.853Z,66.1
2023-03-18T12:58:38.207Z,66.4
2023-03-18T12:59:41.370Z,66.5
2023-03-18T13:00:44.482Z,66.9
2023-03-18T13:01:47.829Z,66.7
2023-03-18T13:02:51.559Z,66.7
2023-03-18T13:03:55.816Z,66.6
2023-03-18T13:04:58.812Z,66.5
2023-03-18T13:06:01.912Z,66.3
2023-03-18T13:07:05.278Z,66.3
2023-03-18T13:08:08.992Z,65.8
2023-03-18T13:09:12.711Z,66.1
2023-03-18T13:10:15.366Z,66.2
2023-03-18T13:11:18.455Z,65.7
2023-03-18T13:12:21.913Z,65.2
2023-03-18T13:13:25.326Z,64.9
2023-03-18T13:14:28.317Z,65
2023-03-18T13:15:33.810Z,65.3
2023-03-18T13:16:37.810Z,65.7
2023-03-18T13:17:41.314Z,65.8
2023-03-18T13:18:45.024Z,65.9
2023-03-18T13:19:48.966Z,65
2023-03-18T13:20:52.701Z,64.9
2023-03-18T13:21:56.215Z,65.1
2023-03-18T13:22:59.922Z,64.9
2023-03-18T13:24:03.035Z,64.4
2023-03-18T13:25:06.184Z,64.5
2023-03-18T13:26:08.980Z,64.7
2023-03-18T13:27:12.104Z,64.1
2023-03-18T13:28:15.555Z,63.2
2023-03-18T13:29:18.655Z,63.3
2023-03-18T13:30:21.910Z,62.1
2023-03-18T13:31:25.006Z,61.8
2023-03-18T13:32:28.304Z,60.9
2023-03-18T13:33:31.773Z,59.7
2023-03-18T13:34:34.870Z,59.3
2023-03-18T13:35:38.632Z,58.9
2023-03-18T13:36:41.708Z,57.4
2023-03-18T13:37:44.707Z,56.5
2023-03-18T13:38:47.865Z,56.2
2023-03-18T13:39:50.403Z,56.8
2023-03-18T13:40:54.071Z,57.6
2023-03-18T13:41:56.177Z,58
2023-03-18T13:42:58.972Z,57.2
2023-03-18T13:44:01.502Z,56.6
2023-03-18T13:45:04.495Z,56.4
2023-03-18T13:46:07.294Z,56.2
2023-03-18T13:47:10.471Z,55.9
2023-03-18T13:48:13.570Z,55.6
2023-03-18T13:49:16.674Z,55.5
2023-03-18T13:50:20.525Z,55.2
2023-03-18T13:51:24.752Z,55
2023-03-18T13:52:28.216Z,54.1
2023-03-18T13:53:31.578Z,53.7
2023-03-18T13:54:35.025Z,53.5
2023-03-18T13:55:38.379Z,52.6
2023-03-18T13:56:41.476Z,51.9
2023-03-18T13:57:43.915Z,51.6
2023-03-18T13:58:46.792Z,52.3
2023-03-18T13:59:50.203Z,51.2
2023-03-18T14:00:52.909Z,51
2023-03-18T14:01:56.466Z,51.2
2023-03-18T14:02:59.331Z,51.9
2023-03-18T14:04:02.305Z,51.1
2023-03-18T14:05:05.657Z,50.9
2023-03-18T14:06:09.433Z,50.9
2023-03-18T14:07:12.988Z,50.9
2023-03-18T14:08:16.073Z,51.1
2023-03-18T14:09:19.097Z,51.8
2023-03-18T14:10:21.951Z,51.6